Data for 03/09/2017

Time Sea-Level Adjusted Pressure Absolute Pressure Temperature Relative Humidity Dew Point   
(mb) (inHg) (mb) (inHg) (C) (F) (%) (C) (F)
00:05 1017 30.03 846 24.98 0.8 33.5 82 -2 28.5
00:10 1017 30.03 846 24.98 0.7 33.2 84 -1.8 28.8
00:15 1017 30.03 846 24.98 0.5 32.9 86 -1.5 29.3
00:20 1017 30.03 846 24.98 0.6 33.1 86 -1.5 29.4
00:25 1017 30.03 846 24.98 0.5 32.9 87 -1.5 29.3
00:30 1017 30.03 846 24.98 0.3 32.6 88 -1.5 29.4
00:35 1016 30 846 24.98 0.3 32.5 88 -1.5 29.4
00:40 1016 30 846 24.98 0.3 32.5 88 -1.5 29.2
00:45 1016 30 845 24.95 0.2 32.4 88 -1.5 29.2
00:50 1016 30 845 24.95 0.2 32.4 88 -1.6 29.2
00:55 1016 30 845 24.95 0.2 32.4 87 -1.6 29.1
01:00 1016 30 845 24.95 0.3 32.5 87 -1.6 29.1
01:05 1016 30 845 24.95 0.3 32.6 86 -1.7 28.9
01:10 1016 30 845 24.95 0.4 32.8 86 -1.6 29.1
01:15 1016 30 845 24.95 0.4 32.7 87 -1.6 29.2
01:20 1016 30 845 24.95 0.4 32.7 86 -1.6 29.1
01:25 1016 30 845 24.95 0.5 32.8 87 -1.5 29.2
01:30 1016 30 845 24.95 0.4 32.8 87 -1.5 29.3
01:35 1016 30 845 24.95 0.4 32.8 87 -1.5 29.2
01:40 1016 30 845 24.95 0.5 32.9 86 -1.5 29.2
01:45 1016 30 845 24.95 0.6 33.1 86 -1.4 29.5
01:50 1016 30 845 24.95 0.8 33.5 85 -1.3 29.6
01:55 1016 30 845 24.95 1 33.7 85 -1.3 29.7
02:00 1016 30 845 24.95 1 33.8 85 -1.2 29.8
02:05 1016 30 845 24.95 0.9 33.7 86 -1.2 29.8
02:10 1016 30 845 24.95 0.8 33.5 86 -1.3 29.7
02:15 1016 30 845 24.95 0.8 33.5 86 -1.2 29.8
02:20 1016 30 845 24.95 0.9 33.5 86 -1.2 29.8
02:25 1016 30 846 24.98 0.9 33.6 86 -1.2 29.8
02:30 1017 30.03 846 24.98 0.9 33.6 86 -1.3 29.7
02:35 1017 30.03 846 24.98 0.8 33.5 86 -1.2 29.8
02:40 1017 30.03 846 24.98 0.7 33.2 87 -1.2 29.8
02:45 1017 30.03 846 24.98 0.5 32.9 88 -1.2 29.8
02:50 1017 30.03 846 24.98 0.5 32.8 89 -1.2 29.9
02:55 1017 30.03 846 24.98 0.4 32.7 89 -1.2 29.9
03:00 1017 30.03 846 24.98 0.2 32.4 89 -1.4 29.5
03:05 1017 30.03 846 24.98 -0.1 31.8 89 -1.7 28.9
03:10 1017 30.03 846 24.98 -0.3 31.5 89 -1.9 28.7
03:15 1017 30.03 846 24.98 -0.3 31.4 89 -1.9 28.6
03:20 1017 30.03 846 24.98 -0.4 31.3 89 -2 28.4
03:25 1017 30.03 846 24.98 -0.4 31.3 88 -2.1 28.2
03:30 1017 30.03 846 24.98 -0.5 31.1 89 -2.2 28.1
03:35 1017 30.03 846 24.98 -0.6 30.9 89 -2.2 28
03:40 1017 30.03 846 24.98 -0.9 30.4 91 -2.2 28
03:45 1017 30.03 846 24.98 -0.9 30.4 91 -2.2 28.1
03:50 1017 30.03 846 24.98 -0.8 30.5 91 -2.2 28.1
03:55 1017 30.03 847 25.01 -0.9 30.3 90 -2.4 27.6
04:00 1017 30.03 847 25.01 -1 30.2 89 -2.5 27.4
04:05 1017 30.03 847 25.01 -1.1 30 90 -2.6 27.4
04:10 1018 30.06 847 25.01 -1.1 30 89 -2.6 27.3
04:15 1018 30.06 847 25.01 -1.2 29.9 90 -2.7 27.2
04:20 1018 30.06 847 25.01 -1.2 29.8 90 -2.7 27.1
04:25 1018 30.06 847 25.01 -1.3 29.7 90 -2.7 27.1
04:30 1018 30.06 847 25.01 -1.4 29.6 89 -2.9 26.8
04:35 1018 30.06 847 25.01 -1.5 29.3 90 -3 26.6
04:40 1018 30.06 847 25.01 -1.6 29.1 90 -3 26.6
04:45 1018 30.06 847 25.01 -1.6 29.1 90 -3 26.6
04:50 1018 30.06 847 25.01 -1.6 29.1 90 -3 26.5
04:55 1018 30.06 847 25.01 -1.7 29 90 -3.1 26.5
05:00 1018 30.06 847 25.01 -1.8 28.8 91 -3.1 26.4
05:05 1018 30.06 847 25.01 -1.8 28.8 91 -3.1 26.5
05:10 1018 30.06 847 25.01 -1.8 28.8 91 -3.1 26.5
05:15 1018 30.06 848 25.04 -1.8 28.8 91 -3 26.5
05:20 1018 30.06 848 25.04 -1.8 28.8 91 -3.1 26.5
05:25 1018 30.06 848 25.04 -1.8 28.8 91 -3 26.5
05:30 1018 30.06 848 25.04 -1.8 28.8 91 -3.1 26.5
05:35 1018 30.06 848 25.04 -1.8 28.7 91 -3.1 26.4
05:40 1018 30.06 848 25.04 -1.9 28.6 91 -3.2 26.3
05:45 1018 30.06 847 25.01 -2 28.4 91 -3.3 26.1
05:50 1018 30.06 847 25.01 -2.1 28.2 92 -3.3 26
05:55 1018 30.06 848 25.04 -2.1 28.2 92 -3.2 26.2
06:00 1018 30.06 848 25.04 -2 28.3 92 -3.2 26.3
06:05 1018 30.06 848 25.04 -1.9 28.5 92 -3 26.5
06:10 1019 30.09 848 25.04 -1.8 28.7 92 -3 26.6
06:15 1019 30.09 848 25.04 -1.8 28.7 91 -3.1 26.4
06:20 1019 30.09 848 25.04 -1.9 28.6 92 -3.1 26.5
06:25 1019 30.09 848 25.04 -1.8 28.7 91 -3.1 26.5
06:30 1019 30.09 848 25.04 -1.8 28.8 91 -3.1 26.5
06:35 1019 30.09 848 25.04 -1.8 28.8 91 -3.1 26.5
06:40 1019 30.09 848 25.04 -1.8 28.8 91 -3.1 26.3
06:45 1019 30.09 848 25.04 -1.8 28.7 91 -3.1 26.4
06:50 1019 30.09 848 25.04 -1.8 28.8 91 -3.1 26.4
06:55 1019 30.09 848 25.04 -1.7 28.9 91 -3.1 26.5
07:00 1019 30.09 848 25.04 -1.8 28.8 90 -3.2 26.3
07:05 1019 30.09 848 25.04 -1.8 28.7 87 -3.6 25.5
07:10 1019 30.09 849 25.07 -1.9 28.6 86 -3.9 25
07:15 1019 30.09 849 25.07 -1.8 28.7 86 -4 24.9
07:20 1019 30.09 849 25.07 -1.9 28.6 84 -4.2 24.4
07:25 1019 30.09 849 25.07 -1.9 28.6 84 -4.3 24.3
07:30 1020 30.12 849 25.07 -2 28.3 85 -4.2 24.4
07:35 1020 30.12 849 25.07 -2 28.3 86 -4 24.8
07:40 1020 30.12 849 25.07 -1.9 28.5 86 -4 24.8
07:45 1020 30.12 849 25.07 -1.9 28.5 86 -4 24.8
07:50 1020 30.12 849 25.07 -1.9 28.5 86 -4 24.9
07:55 1020 30.12 849 25.07 -2.1 28.2 87 -4 24.7
08:00 1020 30.12 849 25.07 -2.3 27.8 88 -4 24.7
08:05 1020 30.12 849 25.07 -2.4 27.6 88 -4.2 24.5
08:10 1020 30.12 849 25.07 -2.6 27.3 88 -4.3 24.3
08:15 1020 30.12 849 25.07 -2.6 27.4 88 -4.3 24.2
08:20 1020 30.12 849 25.07 -2.6 27.3 88 -4.3 24.3
08:25 1020 30.12 849 25.07 -2.6 27.4 88 -4.4 24.1
08:30 1020 30.12 849 25.07 -2.7 27.2 88 -4.4 24
08:35 1020 30.12 849 25.07 -2.7 27.1 88 -4.5 23.8
08:40 1020 30.12 849 25.07 -2.8 27 88 -4.5 23.9
08:45 1020 30.12 850 25.1 -2.8 26.9 88 -4.6 23.7
08:50 1021 30.15 850 25.1 -2.9 26.8 88 -4.5 23.8
08:55 1020 30.12 850 25.1 -2.8 27 87 -4.6 23.8
09:00 1021 30.15 850 25.1 -2.8 26.9 88 -4.6 23.8
09:05 1021 30.15 850 25.1 -2.9 26.8 89 -4.5 23.9
09:10 1021 30.15 850 25.1 -2.9 26.9 88 -4.6 23.7
09:15 1021 30.15 850 25.1 -2.8 26.9 88 -4.6 23.7
09:20 1021 30.15 850 25.1 -2.9 26.8 86 -4.9 23.2
09:25 1021 30.15 850 25.1 -2.7 27.1 85 -4.9 23.2
09:30 1021 30.15 850 25.1 -2.6 27.3 82 -5.2 22.6
09:35 1021 30.15 850 25.1 -2.6 27.4 82 -5.2 22.6
09:40 1021 30.15 850 25.1 -2.4 27.7 79 -5.6 22
09:45 1021 30.15 850 25.1 -2.1 28.2 78 -5.5 22.1
09:50 1021 30.15 850 25.1 -1.8 28.8 76 -5.4 22.3
09:55 1021 30.15 850 25.1 -1.6 29.1 75 -5.5 22.1
10:00 1021 30.15 850 25.1 -1.3 29.6 74 -5.4 22.3
10:05 1021 30.15 851 25.13 -1.2 29.8 72 -5.6 22
10:10 1021 30.15 850 25.1 -1.1 30 71 -5.6 21.8
10:15 1021 30.15 851 25.13 -1.4 29.5 73 -5.7 21.7
10:20 1021 30.15 851 25.13 -1 30.3 69 -5.9 21.4
10:25 1021 30.15 851 25.13 -0.7 30.7 68 -6 21.3
10:30 1022 30.18 851 25.13 -1.3 29.6 69 -6.3 20.7
10:35 1022 30.18 851 25.13 -1.5 29.4 69 -6.4 20.5
10:40 1022 30.18 851 25.13 -1.5 29.4 70 -6.3 20.6
10:45 1021 30.15 851 25.13 -0.9 30.3 67 -6.4 20.5
10:50 1022 30.18 851 25.13 -0.7 30.7 65 -6.4 20.4
10:55 1022 30.18 851 25.13 -1.3 29.7 68 -6.5 20.3
11:00 1022 30.18 851 25.13 -1.1 30 66 -6.6 20
11:05 1022 30.18 851 25.13 -1 30.2 67 -6.4 20.5
11:10 1022 30.18 851 25.13 -0.6 31 63 -6.7 19.9
11:15 1022 30.18 851 25.13 -0.6 30.9 65 -6.3 20.6
11:20 1022 30.18 851 25.13 -1 30.1 65 -6.7 19.9
11:25 1022 30.18 851 25.13 -0.9 30.5 65 -6.7 19.9
11:30 1022 30.18 851 25.13 -0.3 31.5 63 -6.6 20.2
11:35 1022 30.18 851 25.13 -0.3 31.5 63 -6.5 20.3
11:40 1022 30.18 851 25.13 -0.4 31.4 64 -6.4 20.5
11:45 1022 30.18 851 25.13 -1 30.2 66 -6.5 20.3
11:50 1022 30.18 851 25.13 -1.1 30 67 -6.4 20.5
11:55 1022 30.18 851 25.13 -0.6 30.8 65 -6.3 20.6
12:00 1022 30.18 851 25.13 -0.4 31.3 66 -6 21.2
12:05 1022 30.18 851 25.13 -0.6 30.9 66 -6.2 20.9
12:10 1022 30.18 851 25.13 -0.4 31.3 64 -6.3 20.7
12:15 1022 30.18 851 25.13 -0.5 31.1 63 -6.8 19.8
12:20 1022 30.18 851 25.13 0 32 64 -5.9 21.3
12:25 1022 30.18 851 25.13 -0.5 31.2 64 -6.5 20.3
12:30 1022 30.18 851 25.13 -0.5 31.2 65 -6.3 20.7
12:35 1022 30.18 851 25.13 -0.1 31.9 64 -6.1 21
12:40 1022 30.18 852 25.16 -0.2 31.7 66 -5.8 21.6
12:45 1022 30.18 852 25.16 -0.3 31.4 66 -6 21.3
12:50 1022 30.18 851 25.13 -0.6 31 65 -6.3 20.6
12:55 1022 30.18 851 25.13 -1 30.3 68 -6.2 20.8
13:00 1022 30.18 851 25.13 -1.1 30.1 68 -6.3 20.6
13:05 1022 30.18 851 25.13 -1.1 30.1 65 -6.8 19.8
13:10 1022 30.18 851 25.13 -1.4 29.4 67 -6.8 19.8
13:15 1022 30.18 851 25.13 -1.8 28.8 70 -6.6 20.2
13:20 1022 30.18 851 25.13 -1.8 28.7 69 -6.8 19.7
13:25 1022 30.18 851 25.13 -2 28.3 69 -6.9 19.5
13:30 1022 30.18 851 25.13 -2.2 28.1 70 -7 19.5
13:35 1022 30.18 851 25.13 -2.6 27.2 71 -7.2 19
13:40 1022 30.18 851 25.13 -2.7 27.2 71 -7.2 19
13:45 1022 30.18 851 25.13 -3 26.7 71 -7.6 18.3
13:50 1022 30.18 851 25.13 -2.8 27 70 -7.6 18.4
13:55 1022 30.18 851 25.13 -2.9 26.9 71 -7.5 18.6
14:00 1022 30.18 851 25.13 -2.7 27.1 71 -7.2 19
14:05 1022 30.18 851 25.13 -2.6 27.3 70 -7.3 18.9
14:10 1022 30.18 851 25.13 -2.6 27.2 69 -7.6 18.4
14:15 1022 30.18 851 25.13 -2.8 27.1 70 -7.4 18.6
14:20 1022 30.18 851 25.13 -2.7 27.1 71 -7.4 18.8
14:25 1022 30.18 851 25.13 -2.9 26.7 70 -7.6 18.3
14:30 1022 30.18 851 25.13 -3.3 26 72 -7.7 18.1
14:35 1022 30.18 851 25.13 -3.3 26 73 -7.5 18.4
14:40 1022 30.18 851 25.13 -3.4 25.9 72 -7.7 18.2
14:45 1022 30.18 851 25.13 -3.4 25.9 73 -7.6 18.4
14:50 1022 30.18 851 25.13 -3.5 25.7 73 -7.7 18.2
14:55 1021 30.15 851 25.13 -3.4 25.9 71 -7.9 17.8
15:00 1022 30.18 851 25.13 -3.2 26.3 71 -7.7 18.1
15:05 1022 30.18 851 25.13 -3.2 26.3 71 -7.8 18
15:10 1022 30.18 851 25.13 -3.5 25.7 71 -8 17.6
15:15 1022 30.18 851 25.13 -3.7 25.3 72 -8.1 17.4
15:20 1022 30.18 851 25.13 -3.7 25.4 71 -8.2 17.2
15:25 1022 30.18 851 25.13 -3.9 24.9 71 -8.5 16.8
15:30 1022 30.18 851 25.13 -4.4 24 74 -8.5 16.7
15:35 1022 30.18 851 25.13 -4.5 24 74 -8.5 16.7
15:40 1022 30.18 851 25.13 -4.5 23.8 73 -8.6 16.5
15:45 1022 30.18 851 25.13 -4.6 23.7 72 -8.9 15.9
15:50 1022 30.18 851 25.13 -4.9 23.1 75 -8.8 16.2
15:55 1022 30.18 851 25.13 -5.1 22.7 74 -9.1 15.5
16:00 1022 30.18 851 25.13 -5.5 22.1 75 -9.3 15.2
16:05 1022 30.18 851 25.13 -5.7 21.8 74 -9.5 14.9
16:10 1022 30.18 851 25.13 -5.7 21.8 75 -9.5 14.9
16:15 1022 30.18 851 25.13 -5.7 21.7 75 -9.4 15.1
16:20 1022 30.18 851 25.13 -5.7 21.8 75 -9.5 15
16:25 1022 30.18 851 25.13 -5.9 21.4 75 -9.6 14.8
16:30 1022 30.18 851 25.13 -6.1 21.1 76 -9.7 14.5
16:35 1022 30.18 851 25.13 -6.1 21.1 76 -9.7 14.6
16:40 1022 30.18 851 25.13 -6.2 20.9 75 -9.9 14.2
16:45 1022 30.18 851 25.13 -6.4 20.5 75 -10.1 13.9
16:50 1022 30.18 851 25.13 -6.3 20.6 75 -10 13.9
16:55 1022 30.18 851 25.13 -6.4 20.5 75 -10.1 13.9
17:00 1022 30.18 851 25.13 -6.5 20.4 75 -10.1 13.8
17:05 1022 30.18 852 25.16 -6.4 20.4 75 -10.1 13.8
17:10 1022 30.18 852 25.16 -6.4 20.5 75 -10 13.9
17:15 1022 30.18 852 25.16 -6.3 20.7 75 -10 14
17:20 1022 30.18 851 25.13 -6.3 20.6 75 -10 14
17:25 1022 30.18 852 25.16 -6.4 20.5 76 -10 14
17:30 1022 30.18 851 25.13 -6.4 20.4 76 -10 14
17:35 1022 30.18 851 25.13 -6.5 20.3 77 -9.9 14.2
17:40 1022 30.18 851 25.13 -6.7 20 77 -10 14
17:45 1022 30.18 851 25.13 -6.9 19.6 78 -10 13.9
17:50 1022 30.18 851 25.13 -6.9 19.6 78 -10 13.9
17:55 1022 30.18 851 25.13 -6.7 19.9 77 -10.2 13.7
18:00 1022 30.18 851 25.13 -6.9 19.6 77 -10.3 13.5
18:05 1022 30.18 851 25.13 -6.8 19.8 77 -10.2 13.6
18:10 1022 30.18 851 25.13 -6.8 19.7 75 -10.5 13.1
18:15 1022 30.18 851 25.13 -6.9 19.6 75 -10.5 13.1
18:20 1022 30.18 851 25.13 -6.7 19.9 75 -10.4 13.3
18:25 1022 30.18 851 25.13 -6.7 19.9 74 -10.7 12.8
18:30 1022 30.18 851 25.13 -6.9 19.6 76 -10.5 13.1
18:35 1022 30.18 851 25.13 -6.7 19.9 75 -10.5 13.1
18:40 1022 30.18 851 25.13 -6.9 19.6 74 -10.7 12.7
18:45 1022 30.18 851 25.13 -7.1 19.3 78 -10.3 13.4
18:50 1022 30.18 851 25.13 -6.9 19.5 78 -10.2 13.6
18:55 1022 30.18 851 25.13 -6.9 19.5 76 -10.5 13.2
19:00 1022 30.18 851 25.13 -7.1 19.2 75 -10.8 12.6
19:05 1022 30.18 851 25.13 -7.2 19.1 77 -10.6 12.9
19:10 1022 30.18 851 25.13 -7.2 19.1 76 -10.7 12.8
19:15 1022 30.18 851 25.13 -7.3 18.8 75 -11 12.3
19:20 1022 30.18 851 25.13 -7.4 18.8 77 -10.7 12.8
19:25 1021 30.15 851 25.13 -7.3 19 77 -10.6 12.9
19:30 1021 30.15 851 25.13 -7.3 18.9 76 -10.7 12.7
19:35 1021 30.15 851 25.13 -7.3 18.9 76 -10.8 12.6
19:40 1021 30.15 851 25.13 -7.4 18.8 76 -10.9 12.4
19:45 1021 30.15 850 25.1 -7.4 18.6 77 -10.8 12.5
19:50 1021 30.15 851 25.13 -7.5 18.6 76 -11 12.2
19:55 1021 30.15 851 25.13 -7.5 18.6 76 -11 12.2
20:00 1021 30.15 850 25.1 -7.6 18.4 76 -11 12.1
20:05 1021 30.15 850 25.1 -7.6 18.4 74 -11.5 11.3
20:10 1021 30.15 850 25.1 -7.7 18.2 73 -11.8 10.8
20:15 1021 30.15 850 25.1 -7.8 17.9 72 -12 10.5
20:20 1021 30.15 850 25.1 -7.8 18 73 -11.9 10.7
20:25 1021 30.15 850 25.1 -7.7 18.2 72 -12 10.5
20:30 1021 30.15 850 25.1 -7.9 17.8 72 -12.1 10.2
20:35 1021 30.15 850 25.1 -7.8 18 72 -12 10.4
20:40 1021 30.15 850 25.1 -7.6 18.2 72 -11.9 10.6
20:45 1021 30.15 850 25.1 -7.6 18.3 72 -11.8 10.7
20:50 1021 30.15 850 25.1 -7.6 18.3 73 -11.7 11
20:55 1021 30.15 851 25.13 -7.6 18.4 72 -11.7 10.9
21:00 1021 30.15 851 25.13 -7.6 18.3 72 -11.9 10.6
21:05 1021 30.15 851 25.13 -7.8 18.1 72 -12 10.4
21:10 1021 30.15 851 25.13 -7.8 18 72 -12.1 10.3
21:15 1021 30.15 851 25.13 -7.9 17.9 72 -12 10.4
21:20 1021 30.15 850 25.1 -7.8 18 72 -12 10.4
21:25 1021 30.15 850 25.1 -7.9 17.8 72 -12 10.3
21:30 1021 30.15 850 25.1 -7.9 17.9 73 -11.9 10.5
21:35 1021 30.15 850 25.1 -7.8 17.9 73 -11.9 10.7
21:40 1021 30.15 850 25.1 -7.9 17.8 73 -11.9 10.6
21:45 1021 30.15 850 25.1 -7.9 17.7 74 -11.9 10.7
21:50 1021 30.15 850 25.1 -7.8 17.9 74 -11.7 10.9
21:55 1021 30.15 850 25.1 -7.8 18 74 -11.7 11
22:00 1021 30.15 850 25.1 -7.8 18 74 -11.6 11.1
22:05 1021 30.15 850 25.1 -7.8 18 74 -11.7 11
22:10 1021 30.15 850 25.1 -7.7 18.2 74 -11.6 11.1
22:15 1021 30.15 850 25.1 -7.7 18.2 73 -11.7 10.9
22:20 1021 30.15 850 25.1 -7.7 18.1 74 -11.6 11.1
22:25 1021 30.15 850 25.1 -7.7 18.2 73 -11.6 11.1
22:30 1021 30.15 850 25.1 -7.7 18.2 74 -11.5 11.3
22:35 1021 30.15 850 25.1 -7.7 18.2 74 -11.6 11.1
22:40 1021 30.15 850 25.1 -7.7 18.1 74 -11.6 11.2
22:45 1021 30.15 850 25.1 -7.7 18.2 74 -11.6 11.2
22:50 1021 30.15 850 25.1 -7.7 18.2 74 -11.5 11.3
22:55 1021 30.15 850 25.1 -7.5 18.5 75 -11.3 11.7
23:00 1020 30.12 850 25.1 -7.5 18.4 74 -11.4 11.6
23:05 1021 30.15 850 25.1 -7.5 18.4 75 -11.3 11.7
23:10 1021 30.15 850 25.1 -7.5 18.6 74 -11.3 11.7
23:15 1020 30.12 850 25.1 -7.5 18.6 74 -11.3 11.7
23:20 1020 30.12 850 25.1 -7.4 18.6 74 -11.3 11.7
23:25 1020 30.12 850 25.1 -7.4 18.7 75 -11.1 12
23:30 1020 30.12 850 25.1 -7.2 19 75 -11 12.3
23:35 1020 30.12 850 25.1 -7.2 19.1 75 -10.9 12.4
23:40 1020 30.12 850 25.1 -7.2 19.1 75 -10.9 12.3
23:45 1020 30.12 849 25.07 -7.2 19.1 74 -11 12.3
23:50 1020 30.12 849 25.07 -7.3 18.9 75 -11 12.3
23:55 1020 30.12 849 25.07 -7.2 19 75 -10.9 12.3
24:00 1020 30.12 849 25.07 -7.2 19 75 -10.9 12.4